HLE05 EGPF-EGPF

Flight info

Callsign HLE05
Flight time 0h 37m
Altitude 1400
Route VFR HEMS
Aircraft EC45/L-V/N

Departure

Time 2026-01-20 13:50
Airport Glasgow Airport (EGPF)

Arrival

Time 2026-01-20 14:28
Airport Glasgow Airport (EGPF)
Time Latitude Longitude Altitude Speed Heading
2026-01-20 13:33 55.87277 -4.42536 25 ft 0 kts 199°
2026-01-20 13:48 55.87267 -4.42541 29 ft 6 kts 200°
2026-01-20 13:49 55.87223 -4.42605 35 ft 8 kts 269°
2026-01-20 13:49 55.87392 -4.43931 643 ft 61 kts 338°
2026-01-20 13:50 55.88273 -4.44068 1312 ft 86 kts 25°
2026-01-20 13:50 55.88943 -4.43954 1614 ft 108 kts 17°
2026-01-20 13:51 55.90465 -4.43969 2148 ft 111 kts 10°
2026-01-20 13:51 55.92086 -4.44226 2308 ft 123 kts
2026-01-20 13:52 55.93949 -4.44632 2330 ft 146 kts
2026-01-20 13:52 55.97024 -4.45507 2339 ft 148 kts 360°
2026-01-20 13:53 55.99063 -4.46113 2338 ft 150 kts
2026-01-20 13:53 56.00092 -4.46420 2339 ft 150 kts 359°
2026-01-20 13:54 56.03185 -4.47351 2339 ft 149 kts 359°
2026-01-20 13:54 56.04185 -4.47652 2343 ft 148 kts 359°
2026-01-20 13:55 56.07249 -4.48580 2339 ft 149 kts 360°
2026-01-20 13:55 56.08275 -4.48892 2340 ft 149 kts 359°
2026-01-20 13:56 56.10345 -4.49525 2347 ft 151 kts 359°
2026-01-20 13:56 56.13456 -4.50480 2332 ft 152 kts 359°
2026-01-20 13:57 56.14494 -4.50800 2344 ft 151 kts 358°
2026-01-20 13:57 56.17595 -4.51742 2337 ft 150 kts 358°
2026-01-20 13:58 56.18628 -4.52059 2332 ft 151 kts 359°
2026-01-20 13:58 56.20710 -4.52693 2332 ft 151 kts 356°
2026-01-20 13:59 56.23497 -4.53886 1769 ft 120 kts 348°
2026-01-20 13:59 56.24238 -4.54455 1497 ft 112 kts 345°
2026-01-20 14:00 56.24722 -4.53865 739 ft 63 kts 175°
2026-01-20 14:00 56.24485 -4.54016 435 ft 1 kts 109°
2026-01-20 14:11 56.24478 -4.54028 455 ft 6 kts 95°
2026-01-20 14:11 56.24367 -4.53952 852 ft 36 kts 164°
2026-01-20 14:12 56.23441 -4.53479 1236 ft 91 kts 153°
2026-01-20 14:12 56.22012 -4.52793 1907 ft 54 kts 150°
2026-01-20 14:13 56.21205 -4.52373 2242 ft 66 kts 154°
2026-01-20 14:13 56.20744 -4.52143 2364 ft 66 kts 155°
2026-01-20 14:14 56.19966 -4.51727 2517 ft 71 kts 154°
2026-01-20 14:14 56.18169 -4.50765 2494 ft 94 kts 157°
2026-01-20 14:15 56.17551 -4.50435 2493 ft 93 kts 157°
2026-01-20 14:15 56.16511 -4.49881 2486 ft 94 kts 157°
2026-01-20 14:16 56.15234 -4.49208 2489 ft 97 kts 155°
2026-01-20 14:16 56.13328 -4.48213 2466 ft 96 kts 156°
2026-01-20 14:17 56.12046 -4.47549 2460 ft 96 kts 157°
2026-01-20 14:17 56.10821 -4.46906 2490 ft 92 kts 156°
2026-01-20 14:18 56.10194 -4.46579 2493 ft 95 kts 156°
2026-01-20 14:18 56.08930 -4.45922 2481 ft 94 kts 156°
2026-01-20 14:19 56.07663 -4.45265 2480 ft 95 kts 157°
2026-01-20 14:19 56.06394 -4.44608 2479 ft 95 kts 157°
2026-01-20 14:20 56.05127 -4.43955 2479 ft 94 kts 157°
2026-01-20 14:20 56.03887 -4.43317 2476 ft 92 kts 156°
2026-01-20 14:21 56.02076 -4.42385 2463 ft 93 kts 155°
2026-01-20 14:21 56.01471 -4.42078 2480 ft 90 kts 155°
2026-01-20 14:22 56.00244 -4.41444 2472 ft 94 kts 154°
2026-01-20 14:22 55.99009 -4.40806 2482 ft 92 kts 155°
2026-01-20 14:23 55.97750 -4.40150 2482 ft 94 kts 156°
2026-01-20 14:23 55.96487 -4.39499 2469 ft 94 kts 155°
2026-01-20 14:24 55.95214 -4.38846 2485 ft 95 kts 156°
2026-01-20 14:24 55.93271 -4.37844 2471 ft 97 kts 157°
2026-01-20 14:25 55.91973 -4.37172 2321 ft 99 kts 156°
2026-01-20 14:25 55.91306 -4.36823 2187 ft 100 kts 156°
2026-01-20 14:26 55.90025 -4.36154 1903 ft 96 kts 154°
2026-01-20 14:26 55.88684 -4.35601 1558 ft 102 kts 161°
2026-01-20 14:27 55.87361 -4.34982 1184 ft 91 kts 155°
2026-01-20 14:27 55.86282 -4.34375 366 ft 20 kts 127°
2026-01-20 14:28 55.86198 -4.34288 312 ft 9 kts 119°
2026-01-20 14:28 55.86168 -4.34225 260 ft 0 kts 121°
2026-01-20 14:32 55.86047 -4.34487 809 ft 38 kts 182°
2026-01-20 14:33 55.85698 -4.34715 1215 ft 69 kts 177°
2026-01-20 14:33 55.84997 -4.35890 1058 ft 69 kts 323°